Time;durP1;ratioP1;P1;durP2;ratioP2;P2;SDS_P1;SDS_P2;PMS_P1;PMS_P2;Temp;Humidity;BMP_temperature;BMP_pressure;BME280_temperature;BME280_humidity;BME280_pressure;Samples;Min_cycle;Max_cycle;Signal;HPM_P1;HPM_P2
2022/09/14 00:01:14;;;;;;;6.00;3.45;;;19.60;99.90;;;;;;5010210;28;20113;-70
2022/09/14 00:03:40;;;;;;;6.18;3.53;;;19.50;99.90;;;;;;5011410;28;20394;-70
2022/09/14 00:06:09;;;;;;;8.63;4.55;;;19.40;99.90;;;;;;5011724;28;20034;-70
2022/09/14 00:08:35;;;;;;;9.98;3.95;;;19.40;99.90;;;;;;5010522;28;20048;-71
2022/09/14 00:11:08;;;;;;;5.47;3.35;;;19.30;99.90;;;;;;5009827;28;20394;-70
2022/09/14 00:13:35;;;;;;;6.75;4.35;;;19.20;99.90;;;;;;4993747;28;20119;-71
2022/09/14 00:16:09;;;;;;;6.82;3.28;;;19.20;99.90;;;;;;5011400;28;20032;-71
2022/09/14 00:18:35;;;;;;;9.63;3.60;;;19.30;99.90;;;;;;5011641;28;20034;-70
2022/09/14 00:21:05;;;;;;;7.20;3.22;;;19.20;99.90;;;;;;5011215;28;20360;-70
2022/09/14 00:23:31;;;;;;;5.35;3.58;;;19.30;99.90;;;;;;5011114;28;20540;-70
2022/09/14 00:26:24;;;;;;;9.00;3.63;;;19.40;99.90;;;;;;5011085;28;20116;-70
2022/09/14 00:28:54;;;;;;;5.78;3.17;;;19.50;99.90;;;;;;4992132;28;20133;-71
2022/09/14 00:31:21;;;;;;;13.70;4.00;;;19.50;99.90;;;;;;5009707;28;20106;-71
2022/09/14 00:33:48;;;;;;;6.78;3.60;;;19.50;99.90;;;;;;5011034;28;20026;-71
2022/09/14 00:36:27;;;;;;;6.20;3.97;;;19.50;99.90;;;;;;5011408;28;20112;-70
2022/09/14 00:38:59;;;;;;;6.55;3.75;;;19.40;99.90;;;;;;5010988;28;20026;-70
2022/09/14 00:41:30;;;;;;;8.02;3.25;;;19.50;99.90;;;;;;5009763;28;20581;-70
2022/09/14 00:44:10;;;;;;;6.60;3.03;;;19.40;99.90;;;;;;5010885;28;20042;-71
2022/09/14 00:46:44;;;;;;;9.50;4.43;;;19.40;99.90;;;;;;5010018;28;20044;-70
2022/09/14 00:49:33;;;;;;;4.68;2.80;;;19.30;99.90;;;;;;5009534;28;20490;-70
2022/09/14 00:52:36;;;;;;;10.50;4.30;;;19.30;99.90;;;;;;5010443;28;20038;-71
2022/09/14 00:55:10;;;;;;;7.97;3.45;;;19.00;99.90;;;;;;5010849;28;20030;-71
2022/09/14 00:57:42;;;;;;;9.65;3.05;;;18.90;99.90;;;;;;5010002;28;20030;-71
2022/09/14 01:00:10;;;;;;;5.60;3.17;;;19.00;99.90;;;;;;5009826;28;20022;-71
2022/09/14 01:02:36;;;;;;;5.88;2.78;;;18.90;99.90;;;;;;5010270;28;20520;-70
2022/09/14 01:05:03;;;;;;;6.30;2.78;;;18.90;99.90;;;;;;5005643;28;20092;-70
2022/09/14 01:07:57;;;;;;;7.35;3.15;;;19.00;99.90;;;;;;4983872;28;20041;-71
2022/09/14 01:10:48;;;;;;;5.20;2.90;;;19.00;99.90;;;;;;5008090;28;20125;-70
2022/09/14 01:13:50;;;;;;;8.35;2.67;;;19.00;99.90;;;;;;5010503;28;20116;-70
2022/09/14 01:16:50;;;;;;;7.18;2.75;;;18.90;99.90;;;;;;4996382;28;20034;-70
2022/09/14 01:20:04;;;;;;;10.27;3.60;;;18.70;99.90;;;;;;4989862;28;20039;-70
2022/09/14 01:22:51;;;;;;;5.75;2.03;;;18.60;99.90;;;;;;4906393;29;20040;-70
2022/09/14 01:26:02;;;;;;;8.27;3.30;;;18.40;99.90;;;;;;5003319;28;20057;-71
2022/09/14 01:29:00;;;;;;;6.15;2.85;;;18.60;99.90;;;;;;4995645;28;20398;-70
2022/09/14 01:31:52;;;;;;;3.20;2.30;;;18.70;99.90;;;;;;5010878;28;20050;-70
2022/09/14 01:34:48;;;;;;;4.10;2.33;;;18.60;99.90;;;;;;5009977;28;20033;-70
2022/09/14 01:37:24;;;;;;;3.92;2.22;;;18.60;99.90;;;;;;5010562;28;20034;-71
2022/09/14 01:40:00;;;;;;;4.50;2.13;;;18.60;99.90;;;;;;5009298;28;20025;-70
2022/09/14 01:42:28;;;;;;;5.38;2.05;;;18.70;99.90;;;;;;4990972;28;20084;-70
2022/09/14 01:44:58;;;;;;;3.35;1.98;;;18.70;99.90;;;;;;4976762;28;20038;-70
2022/09/14 01:47:42;;;;;;;6.57;2.20;;;18.80;99.90;;;;;;4993336;28;20026;-71
2022/09/14 01:50:32;;;;;;;5.15;2.38;;;18.80;99.90;;;;;;4993002;28;20038;-70
2022/09/14 01:53:27;;;;;;;5.68;2.63;;;18.70;99.90;;;;;;4992988;28;20752;-70
2022/09/14 01:56:00;;;;;;;5.63;2.47;;;18.70;99.90;;;;;;4993173;28;20030;-70
2022/09/14 01:58:39;;;;;;;5.53;3.05;;;18.80;99.90;;;;;;4994142;28;20061;-70
2022/09/14 02:01:13;;;;;;;5.82;2.10;;;18.80;99.90;;;;;;4993152;28;20030;-70
2022/09/14 02:03:52;;;;;;;4.45;2.17;;;18.80;99.90;;;;;;4993905;28;20030;-70
2022/09/14 02:06:46;;;;;;;5.10;2.47;;;18.80;99.90;;;;;;4993174;28;20030;-70
2022/09/14 02:09:18;;;;;;;4.90;2.47;;;18.80;99.90;;;;;;4991948;28;20042;-70
2022/09/14 02:11:46;;;;;;;4.03;2.15;;;18.70;99.90;;;;;;4993025;28;20041;-71
2022/09/14 02:14:11;;;;;;;10.27;2.63;;;18.70;99.90;;;;;;4993503;28;20042;-70
2022/09/14 02:16:38;;;;;;;5.07;3.13;;;18.60;99.90;;;;;;5011179;28;20037;-71
2022/09/14 02:19:05;;;;;;;6.55;2.13;;;18.70;99.90;;;;;;5013099;28;20471;-71
2022/09/14 02:21:32;;;;;;;4.93;2.35;;;18.70;99.90;;;;;;5012417;28;20032;-70
2022/09/14 02:24:00;;;;;;;4.88;2.83;;;18.60;99.90;;;;;;5011621;28;20038;-70
2022/09/14 02:26:26;;;;;;;5.43;3.55;;;18.60;99.90;;;;;;5012235;28;20030;-70
2022/09/14 02:28:54;;;;;;;5.90;3.55;;;18.50;99.90;;;;;;5011658;28;20029;-70
2022/09/14 02:31:49;;;;;;;5.20;3.30;;;18.50;99.90;;;;;;5012303;28;20030;-70
2022/09/14 02:34:42;;;;;;;6.18;4.15;;;18.50;99.90;;;;;;5012686;28;20104;-71
2022/09/14 02:37:18;;;;;;;10.20;3.13;;;18.40;99.90;;;;;;5011984;28;20029;-71
2022/09/14 02:40:01;;;;;;;6.13;2.78;;;18.40;99.90;;;;;;5011524;28;20430;-71
2022/09/14 02:43:02;;;;;;;5.60;3.10;;;18.40;99.90;;;;;;5012738;28;20037;-71
2022/09/14 02:45:55;;;;;;;4.50;2.20;;;18.30;99.90;;;;;;4983882;28;20042;-71
2022/09/14 02:48:49;;;;;;;8.52;3.70;;;18.30;99.90;;;;;;5011949;28;20123;-71
2022/09/14 02:51:24;;;;;;;6.28;3.40;;;18.30;99.90;;;;;;5011925;28;20068;-71
2022/09/14 02:54:04;;;;;;;3.75;2.58;;;18.30;99.90;;;;;;5012274;28;20026;-71
2022/09/14 02:56:31;;;;;;;4.45;2.90;;;18.30;99.90;;;;;;4985958;23;20061;-71
2022/09/14 02:58:57;;;;;;;6.07;2.70;;;18.30;99.90;;;;;;4972164;28;20079;-71
2022/09/14 03:01:24;;;;;;;7.40;2.78;;;18.30;99.90;;;;;;4973845;28;20066;-71
2022/09/14 03:03:50;;;;;;;4.78;2.20;;;18.30;99.90;;;;;;4973428;28;20027;-72
2022/09/14 03:06:16;;;;;;;5.70;3.15;;;18.20;99.90;;;;;;4965520;28;20046;-72
2022/09/14 03:08:42;;;;;;;7.55;2.58;;;18.20;99.90;;;;;;4973523;28;20158;-71
2022/09/14 03:11:08;;;;;;;4.20;2.47;;;18.20;99.90;;;;;;4973632;28;20552;-71
2022/09/14 03:13:34;;;;;;;4.57;2.28;;;18.20;99.90;;;;;;4973227;28;20039;-71
2022/09/14 03:16:09;;;;;;;4.22;2.00;;;18.20;99.90;;;;;;4985260;28;20136;-71
2022/09/14 03:18:36;;;;;;;5.80;2.30;;;18.30;99.90;;;;;;4992928;28;20027;-71
2022/09/14 03:21:09;;;;;;;5.65;1.85;;;18.30;99.90;;;;;;4991596;28;20030;-72
2022/09/14 03:23:47;;;;;;;4.35;2.65;;;18.40;99.90;;;;;;4992444;28;20030;-72
2022/09/14 03:26:22;;;;;;;13.10;3.20;;;18.50;99.90;;;;;;4975220;28;20118;-71
2022/09/14 03:28:57;;;;;;;3.83;2.20;;;18.60;99.90;;;;;;4991983;28;20593;-72
2022/09/14 03:31:23;;;;;;;3.28;1.98;;;18.50;99.90;;;;;;4992754;28;20034;-71
2022/09/14 03:33:55;;;;;;;3.22;2.30;;;18.50;99.90;;;;;;4990946;28;20030;-72
2022/09/14 03:36:23;;;;;;;8.05;2.17;;;18.40;99.90;;;;;;4992308;28;20034;-71
2022/09/14 03:38:52;;;;;;;5.07;2.65;;;18.30;99.90;;;;;;4991041;28;20117;-72
2022/09/14 03:41:20;;;;;;;4.72;2.00;;;18.20;99.90;;;;;;4991278;28;20027;-71
2022/09/14 03:43:46;;;;;;;6.55;2.63;;;18.10;99.90;;;;;;4992025;28;20475;-71
2022/09/14 03:46:22;;;;;;;3.63;2.55;;;18.20;99.90;;;;;;4991064;28;20034;-71
2022/09/14 03:48:49;;;;;;;6.30;3.20;;;18.20;99.90;;;;;;4990703;28;20088;-70
2022/09/14 03:51:15;;;;;;;4.22;2.10;;;18.10;99.90;;;;;;4991177;28;20038;-70
2022/09/14 03:53:43;;;;;;;2.75;1.63;;;18.10;99.90;;;;;;4968639;28;20086;-70
2022/09/14 03:56:16;;;;;;;4.93;2.47;;;18.10;99.90;;;;;;5010637;28;20041;-70
2022/09/14 03:58:44;;;;;;;6.57;2.90;;;18.10;99.90;;;;;;5008429;28;20029;-70
2022/09/14 04:01:14;;;;;;;2.78;1.65;;;18.20;99.90;;;;;;4989001;28;20033;-70
2022/09/14 04:03:40;;;;;;;4.40;1.83;;;18.20;99.90;;;;;;4974190;28;20031;-70
2022/09/14 04:06:07;;;;;;;4.03;2.13;;;18.20;99.90;;;;;;4998538;28;20565;-70
2022/09/14 04:08:39;;;;;;;4.70;2.63;;;18.00;99.90;;;;;;4989211;28;20451;-69
2022/09/14 04:11:13;;;;;;;6.43;3.33;;;18.00;99.90;;;;;;4991508;28;20391;-70
2022/09/14 04:13:40;;;;;;;5.82;3.25;;;18.00;99.90;;;;;;4991649;28;20093;-69
2022/09/14 04:16:06;;;;;;;4.22;2.22;;;17.90;99.90;;;;;;5005356;28;20045;-70
2022/09/14 04:18:32;;;;;;;3.88;2.58;;;18.00;99.90;;;;;;5011315;28;20481;-70
2022/09/14 04:21:07;;;;;;;5.70;2.85;;;18.00;99.90;;;;;;5009514;28;20034;-70
2022/09/14 04:23:33;;;;;;;4.38;2.58;;;18.00;99.90;;;;;;5001036;28;20038;-70
2022/09/14 04:25:59;;;;;;;6.55;2.83;;;17.90;99.90;;;;;;4992933;28;20049;-69
2022/09/14 04:28:25;;;;;;;12.65;2.65;;;17.90;99.90;;;;;;4981415;28;20041;-70
2022/09/14 04:30:59;;;;;;;4.50;2.92;;;18.00;99.90;;;;;;4989919;28;20034;-70
2022/09/14 04:33:29;;;;;;;5.93;2.95;;;18.00;99.90;;;;;;4990175;28;20518;-69
2022/09/14 04:36:08;;;;;;;7.10;2.60;;;18.00;99.90;;;;;;4991328;28;20102;-69
2022/09/14 04:38:36;;;;;;;44.10;19.48;;;18.00;99.90;;;;;;4991388;28;20178;-70
2022/09/14 04:41:07;;;;;;;71.72;34.33;;;17.90;99.90;;;;;;4990987;28;20121;-70
2022/09/14 04:43:33;;;;;;;7.43;3.47;;;18.00;99.90;;;;;;4991237;28;20023;-68
2022/09/14 04:46:05;;;;;;;4.97;3.30;;;18.00;99.90;;;;;;4990643;28;20564;-68
2022/09/14 04:48:33;;;;;;;10.40;3.30;;;18.00;99.90;;;;;;4991428;28;20085;-68
2022/09/14 04:51:04;;;;;;;20.73;10.38;;;18.00;99.90;;;;;;4990735;28;20117;-69
2022/09/14 04:53:32;;;;;;;;;;;18.00;99.90;;;;;;4991571;28;20069;-69
2022/09/14 04:56:03;;;;;;;9.55;5.57;;;18.00;99.90;;;;;;4990679;28;19917;-69
2022/09/14 04:58:29;;;;;;;;;;;18.00;99.90;;;;;;4991721;28;20026;-69
2022/09/14 05:01:05;;;;;;;4.40;2.83;;;18.00;99.90;;;;;;4990553;28;19910;-68
2022/09/14 05:03:31;;;;;;;6.05;3.20;;;17.90;99.90;;;;;;4990938;28;20042;-68
2022/09/14 05:06:01;;;;;;;5.10;3.05;;;18.00;99.90;;;;;;4990785;28;20034;-69
2022/09/14 05:08:27;;;;;;;7.22;3.80;;;17.90;99.90;;;;;;4991039;28;20034;-69
2022/09/14 05:10:57;;;;;;;6.68;3.33;;;17.90;99.90;;;;;;4990253;28;20030;-69
2022/09/14 05:13:23;;;;;;;5.97;3.60;;;18.00;99.90;;;;;;4990581;28;20049;-69
2022/09/14 05:15:50;;;;;;;6.75;3.88;;;18.00;99.90;;;;;;5002087;28;20037;-69
2022/09/14 05:18:17;;;;;;;5.50;3.17;;;18.00;99.90;;;;;;5011845;28;20037;-70
2022/09/14 05:20:44;;;;;;;7.95;4.32;;;18.00;99.90;;;;;;5014307;28;20079;-70
2022/09/14 05:23:10;;;;;;;5.63;3.10;;;18.00;99.90;;;;;;5014134;28;20032;-70
2022/09/14 05:25:35;;;;;;;5.78;3.63;;;18.00;99.90;;;;;;4996882;28;20125;-71
2022/09/14 05:28:02;;;;;;;5.05;3.25;;;18.00;99.90;;;;;;5014246;28;20160;-70
2022/09/14 05:30:28;;;;;;;6.90;3.33;;;17.90;99.90;;;;;;4998365;28;20041;-72
2022/09/14 05:32:54;;;;;;;5.65;3.30;;;17.90;99.90;;;;;;4992429;28;20038;-71
2022/09/14 05:35:19;;;;;;;5.00;3.58;;;17.90;99.90;;;;;;4991281;28;20033;-72
2022/09/14 05:37:45;;;;;;;7.50;2.75;;;18.00;99.90;;;;;;4992976;28;20034;-70
2022/09/14 05:40:10;;;;;;;6.72;3.55;;;18.00;99.90;;;;;;4992539;28;20037;-71
2022/09/14 05:42:36;;;;;;;6.13;2.53;;;18.00;99.90;;;;;;4975184;28;20116;-69
2022/09/14 05:45:02;;;;;;;6.85;3.90;;;17.90;99.90;;;;;;4991886;28;20034;-70
2022/09/14 05:47:29;;;;;;;7.53;3.55;;;17.90;99.90;;;;;;4994555;28;20579;-69
2022/09/14 05:49:55;;;;;;;5.95;3.90;;;17.90;99.90;;;;;;4994180;28;20398;-69
2022/09/14 05:52:22;;;;;;;7.82;3.47;;;17.90;99.90;;;;;;4993969;28;20454;-69
2022/09/14 05:54:47;;;;;;;9.88;3.58;;;17.90;99.90;;;;;;4993106;28;20040;-68
2022/09/14 05:57:13;;;;;;;9.15;4.18;;;17.90;99.90;;;;;;4993805;28;20117;-69
2022/09/14 05:59:39;;;;;;;4.90;2.85;;;17.90;99.90;;;;;;4993775;28;20503;-69
2022/09/14 06:02:05;;;;;;;8.50;3.53;;;17.80;99.90;;;;;;4993159;28;20030;-69
2022/09/14 06:04:30;;;;;;;5.45;2.90;;;17.80;99.90;;;;;;4994303;28;20034;-70
2022/09/14 06:06:56;;;;;;;5.97;2.95;;;17.90;99.90;;;;;;4994123;28;20376;-69
2022/09/14 06:09:22;;;;;;;4.63;2.95;;;18.00;99.90;;;;;;4994120;28;20031;-70
2022/09/14 06:11:47;;;;;;;7.45;3.15;;;17.90;99.90;;;;;;4993869;28;20030;-69
2022/09/14 06:14:18;;;;;;;4.22;2.50;;;17.90;99.90;;;;;;4993680;28;20521;-70
2022/09/14 06:16:44;;;;;;;9.82;2.55;;;17.90;99.90;;;;;;4977681;28;20085;-70
2022/09/14 06:19:11;;;;;;;4.68;2.80;;;17.90;99.90;;;;;;4976128;28;20038;-70
2022/09/14 06:21:36;;;;;;;6.78;2.58;;;17.90;99.90;;;;;;4994354;28;20026;-69
2022/09/14 06:24:02;;;;;;;4.97;2.50;;;17.90;99.90;;;;;;4993302;28;20037;-69
2022/09/14 06:26:28;;;;;;;2.92;1.75;;;17.80;99.90;;;;;;4976415;28;20035;-69
2022/09/14 06:28:54;;;;;;;4.88;2.60;;;17.80;99.90;;;;;;4975362;28;20493;-70
2022/09/14 06:31:24;;;;;;;4.50;2.47;;;17.90;99.90;;;;;;4976387;28;20042;-70
2022/09/14 06:33:51;;;;;;;3.80;2.35;;;17.90;99.90;;;;;;4993387;28;20038;-69
2022/09/14 06:36:26;;;;;;;3.38;1.88;;;17.90;99.90;;;;;;4992211;28;20031;-70
2022/09/14 06:38:53;;;;;;;3.03;1.73;;;17.80;99.90;;;;;;4993440;28;20113;-69
2022/09/14 06:41:25;;;;;;;2.30;1.45;;;17.90;99.90;;;;;;4992583;28;20032;-69
2022/09/14 06:43:54;;;;;;;3.15;1.90;;;17.90;99.90;;;;;;4993391;28;20479;-69
2022/09/14 06:46:25;;;;;;;8.30;2.67;;;17.80;99.90;;;;;;4992222;28;20030;-69
2022/09/14 06:49:04;;;;;;;4.25;2.65;;;17.80;99.90;;;;;;4992983;28;20041;-69
2022/09/14 06:51:42;;;;;;;3.65;2.10;;;17.80;99.90;;;;;;4993443;28;20037;-69
2022/09/14 06:54:11;;;;;;;4.00;2.22;;;17.90;99.90;;;;;;4992044;28;20109;-69
2022/09/14 06:56:39;;;;;;;5.60;2.83;;;18.00;99.90;;;;;;4991878;28;20034;-69
2022/09/14 06:59:08;;;;;;;6.55;2.88;;;18.00;99.90;;;;;;4992910;28;20054;-69
2022/09/14 07:01:34;;;;;;;4.82;2.70;;;18.00;99.90;;;;;;4993277;28;20479;-70
2022/09/14 07:04:00;;;;;;;4.68;2.20;;;18.10;99.90;;;;;;4991653;28;20026;-70
2022/09/14 07:06:30;;;;;;;4.55;2.40;;;18.20;99.90;;;;;;4993300;28;20045;-70
2022/09/14 07:08:56;;;;;;;4.03;2.28;;;18.20;99.90;;;;;;4992643;28;20034;-70
2022/09/14 07:11:25;;;;;;;5.07;2.35;;;18.10;99.90;;;;;;4975594;28;20052;-69
2022/09/14 07:13:57;;;;;;;4.95;2.20;;;18.20;99.90;;;;;;4991461;28;20042;-70
2022/09/14 07:16:24;;;;;;;4.40;2.72;;;18.20;99.90;;;;;;4992830;28;20085;-70
2022/09/14 07:19:01;;;;;;;4.15;2.88;;;18.10;99.90;;;;;;4991353;28;20030;-70
2022/09/14 07:21:29;;;;;;;4.35;2.42;;;18.20;99.90;;;;;;4993081;28;20116;-69
2022/09/14 07:23:55;;;;;;;3.90;2.53;;;18.20;99.90;;;;;;4991160;28;20026;-70
2022/09/14 07:26:28;;;;;;;5.60;2.50;;;18.20;99.90;;;;;;4991531;28;20085;-70
2022/09/14 07:28:58;;;;;;;4.93;2.50;;;18.20;99.90;;;;;;4992444;28;20038;-70
2022/09/14 07:31:28;;;;;;;2.92;2.28;;;18.10;99.90;;;;;;4991456;28;20030;-70
2022/09/14 07:34:00;;;;;;;3.60;2.45;;;18.20;99.90;;;;;;4992396;28;20034;-70
2022/09/14 07:36:27;;;;;;;6.00;3.45;;;18.20;99.90;;;;;;4992366;28;20030;-70
2022/09/14 07:38:53;;;;;;;5.70;3.03;;;18.20;99.90;;;;;;4992301;28;20111;-70
2022/09/14 07:41:21;;;;;;;4.45;2.60;;;18.30;99.90;;;;;;4991377;28;20037;-69
2022/09/14 07:43:52;;;;;;;6.55;2.90;;;18.40;99.90;;;;;;4991235;28;20027;-69
2022/09/14 07:46:19;;;;;;;6.93;3.60;;;18.40;99.90;;;;;;4992124;28;20022;-70
2022/09/14 07:48:46;;;;;;;10.73;3.15;;;18.40;99.90;;;;;;4991865;28;20064;-70
2022/09/14 07:51:13;;;;;;;6.43;3.47;;;18.50;99.90;;;;;;4991937;28;20044;-70
2022/09/14 07:53:41;;;;;;;10.50;3.58;;;18.50;99.90;;;;;;4992142;28;20037;-70
2022/09/14 07:56:09;;;;;;;5.38;3.38;;;18.50;99.90;;;;;;4990812;28;20042;-70
2022/09/14 07:58:35;;;;;;;3.28;2.28;;;18.60;99.90;;;;;;4992165;28;20026;-70
2022/09/14 08:01:08;;;;;;;7.65;3.60;;;18.90;99.90;;;;;;4991508;28;20034;-70
2022/09/14 08:03:38;;;;;;;4.60;2.88;;;18.80;99.90;;;;;;4991957;28;20038;-70
2022/09/14 08:06:12;;;;;;;4.05;3.08;;;18.90;99.90;;;;;;4992245;28;20034;-70
2022/09/14 08:08:41;;;;;;;7.82;4.13;;;18.90;99.90;;;;;;4990381;28;20034;-70
2022/09/14 08:11:12;;;;;;;8.25;3.90;;;18.90;99.90;;;;;;4974781;28;20590;-70
2022/09/14 08:13:47;;;;;;;7.78;4.13;;;18.90;99.90;;;;;;4974282;28;20053;-70
2022/09/14 08:16:13;;;;;;;5.97;3.63;;;18.90;99.90;;;;;;4991727;28;20442;-70
2022/09/14 08:18:40;;;;;;;7.53;4.53;;;18.90;99.90;;;;;;4991271;28;20052;-68
2022/09/14 08:21:13;;;;;;;9.63;4.55;;;18.90;99.90;;;;;;4991789;28;20023;-68
2022/09/14 08:23:40;;;;;;;6.50;3.72;;;19.10;99.90;;;;;;4973831;28;20057;-67
2022/09/14 08:26:12;;;;;;;8.15;3.95;;;19.10;99.90;;;;;;4973413;28;20088;-69
2022/09/14 08:28:39;;;;;;;7.97;4.45;;;19.10;99.90;;;;;;4988218;28;20089;-69
2022/09/14 08:31:17;;;;;;;9.10;4.22;;;19.20;99.90;;;;;;4989640;28;20060;-69
2022/09/14 08:33:51;;;;;;;8.50;3.33;;;19.20;99.90;;;;;;4993075;28;20030;-68
2022/09/14 08:36:20;;;;;;;8.20;4.35;;;19.40;99.90;;;;;;4990333;28;20372;-69
2022/09/14 08:38:46;;;;;;;4.57;3.33;;;19.40;99.90;;;;;;4990606;28;20467;-69
2022/09/14 08:41:54;;;;;;;13.95;3.90;;;19.40;99.90;;;;;;4986929;28;20041;-69
2022/09/14 08:44:26;;;;;;;5.45;3.05;;;19.50;99.90;;;;;;4985026;28;20092;-68
2022/09/14 08:46:58;;;;;;;7.18;3.55;;;19.40;99.90;;;;;;4987690;28;20096;-70
2022/09/14 08:49:46;;;;;;;12.32;3.72;;;19.50;99.90;;;;;;4972533;28;20514;-70
2022/09/14 08:52:39;;;;;;;10.07;3.22;;;19.40;99.90;;;;;;4990430;28;20046;-69
2022/09/14 08:55:45;;;;;;;8.55;3.47;;;19.20;99.90;;;;;;4989110;28;20034;-68
2022/09/14 08:58:28;;;;;;;7.85;3.17;;;19.20;99.90;;;;;;4988891;28;20034;-69
2022/09/14 09:01:19;;;;;;;6.25;3.53;;;19.30;99.90;;;;;;4990513;28;20034;-69
2022/09/14 09:04:26;;;;;;;8.10;3.58;;;19.30;99.90;;;;;;4990719;28;20034;-69
2022/09/14 09:07:34;;;;;;;5.28;2.42;;;19.60;99.90;;;;;;4990918;28;20470;-68
2022/09/14 09:10:05;;;;;;;10.05;3.10;;;19.60;99.90;;;;;;4989791;28;20046;-69
2022/09/14 09:12:49;;;;;;;7.35;3.47;;;19.70;99.90;;;;;;4988244;28;20030;-68
2022/09/14 09:15:31;;;;;;;6.07;2.85;;;19.90;99.90;;;;;;4989236;28;20038;-69
2022/09/14 09:18:47;;;;;;;5.10;2.80;;;19.90;99.90;;;;;;4988317;28;20026;-68
2022/09/14 09:21:37;;;;;;;6.78;3.28;;;19.90;99.90;;;;;;4989079;28;20030;-69
2022/09/14 09:24:26;;;;;;;5.95;3.75;;;19.70;99.90;;;;;;4984524;28;20038;-68
2022/09/14 09:26:51;;;;;;;8.80;3.97;;;19.70;99.90;;;;;;4988155;28;20081;-69
2022/09/14 09:29:17;;;;;;;6.82;3.83;;;19.80;99.90;;;;;;4985424;28;20430;-69
2022/09/14 09:31:50;;;;;;;10.40;3.95;;;19.70;99.90;;;;;;4989869;28;20125;-68
2022/09/14 09:34:24;;;;;;;7.93;3.58;;;19.60;99.90;;;;;;4988722;28;20026;-69
2022/09/14 09:36:50;;;;;;;6.43;3.15;;;19.60;99.90;;;;;;4984566;28;20041;-69
2022/09/14 09:39:16;;;;;;;8.93;4.10;;;19.70;99.90;;;;;;4988488;28;20027;-68
2022/09/14 09:41:58;;;;;;;7.97;4.00;;;19.70;99.90;;;;;;4989646;28;20023;-69
2022/09/14 09:44:24;;;;;;;8.15;4.38;;;20.00;99.90;;;;;;4990207;28;20038;-67
2022/09/14 09:46:58;;;;;;;5.85;3.78;;;20.10;99.90;;;;;;4988630;28;20026;-68
2022/09/14 09:49:37;;;;;;;6.82;3.90;;;20.50;99.90;;;;;;4989140;28;20105;-68
2022/09/14 09:52:13;;;;;;;6.43;3.47;;;20.60;99.90;;;;;;4989509;28;20030;-69
2022/09/14 09:54:47;;;;;;;7.85;3.80;;;20.60;99.90;;;;;;4988550;28;20394;-68
2022/09/14 09:57:35;;;;;;;11.63;3.95;;;20.80;99.90;;;;;;4989979;28;20038;-68
2022/09/14 10:00:18;;;;;;;6.85;3.38;;;20.90;99.90;;;;;;4971773;28;20449;-69
2022/09/14 10:02:44;;;;;;;8.13;3.33;;;21.10;99.90;;;;;;4987951;28;20610;-68
2022/09/14 10:05:09;;;;;;;7.25;3.88;;;21.40;99.90;;;;;;4993702;28;20121;-70
2022/09/14 10:07:58;;;;;;;7.82;3.63;;;21.30;99.90;;;;;;4994815;28;20030;-69
2022/09/14 10:10:33;;;;;;;7.07;4.30;;;21.20;99.90;;;;;;4994556;28;20069;-69
2022/09/14 10:12:59;;;;;;;6.20;3.35;;;21.20;99.90;;;;;;4989911;28;20463;-72
2022/09/14 10:15:31;;;;;;;8.90;4.03;;;21.40;99.90;;;;;;4992293;28;20034;-72
2022/09/14 10:18:10;;;;;;;9.60;3.72;;;21.50;99.90;;;;;;4991649;28;20034;-70
2022/09/14 10:21:06;;;;;;;7.05;3.65;;;21.80;99.90;;;;;;4992731;28;20037;-71
2022/09/14 10:23:36;;;;;;;8.40;3.75;;;22.30;99.90;;;;;;4988342;28;20026;-69
2022/09/14 10:26:11;;;;;;;6.25;4.28;;;22.50;99.90;;;;;;4991924;28;20131;-70
2022/09/14 10:28:40;;;;;;;8.48;5.03;;;22.20;99.90;;;;;;4989705;28;20450;-70
2022/09/14 10:31:17;;;;;;;8.65;4.20;;;22.50;99.90;;;;;;4974945;28;20041;-73
2022/09/14 10:33:45;;;;;;;6.15;3.65;;;22.40;99.90;;;;;;4992954;28;20042;-72
2022/09/14 10:36:41;;;;;;;7.53;4.38;;;22.50;99.90;;;;;;4992844;28;20026;-72
2022/09/14 10:39:25;;;;;;;5.57;4.13;;;22.40;99.90;;;;;;4988532;28;20453;-72
2022/09/14 10:42:21;;;;;;;7.05;4.45;;;22.40;99.90;;;;;;4974824;28;20034;-71
2022/09/14 10:45:07;;;;;;;6.75;3.50;;;22.80;99.90;;;;;;4991673;28;20062;-72
2022/09/14 10:47:54;;;;;;;6.13;3.67;;;22.90;99.90;;;;;;4992407;28;20045;-71
2022/09/14 10:51:20;;;;;;;5.43;2.85;;;22.80;99.90;;;;;;4992351;28;20042;-71
2022/09/14 10:54:25;;;;;;;8.25;1.98;;;23.00;99.90;;;;;;4991038;28;20371;-72
2022/09/14 10:57:04;;;;;;;8.55;4.07;;;23.10;99.90;;;;;;4992038;28;20038;-72
2022/09/14 10:59:37;;;;;;;11.70;2.88;;;23.00;99.90;;;;;;4992151;28;20389;-72
2022/09/14 11:02:24;;;;;;;3.60;2.15;;;23.10;99.90;;;;;;4983563;28;20034;-72
2022/09/14 11:05:24;;;;;;;6.28;3.25;;;23.30;99.90;;;;;;4992640;28;20038;-73
2022/09/14 11:07:54;;;;;;;5.55;3.72;;;22.90;99.90;;;;;;4992115;28;20038;-73
2022/09/14 11:10:45;;;;;;;11.97;3.33;;;23.10;99.90;;;;;;4992141;28;20041;-73
2022/09/14 11:14:16;;;;;;;5.70;2.95;;;23.20;99.90;;;;;;4990854;28;20038;-72
2022/09/14 11:17:11;;;;;;;4.80;2.47;;;23.30;99.90;;;;;;4896978;29;20043;-73
2022/09/14 11:19:58;;;;;;;13.57;3.40;;;23.60;99.90;;;;;;4990952;28;20030;-72
2022/09/14 11:22:53;;;;;;;8.07;3.45;;;24.00;99.90;;;;;;4978867;28;20121;-72
2022/09/14 11:25:32;;;;;;;6.82;3.72;;;24.30;99.90;;;;;;4958365;28;20038;-73
2022/09/14 11:28:10;;;;;;;7.10;2.97;;;24.10;99.90;;;;;;4986604;28;20081;-73
2022/09/14 11:30:44;;;;;;;12.10;3.20;;;24.30;99.90;;;;;;4990265;28;20034;-73
2022/09/14 11:33:26;;;;;;;5.35;2.63;;;24.50;99.90;;;;;;4990118;28;20097;-73
2022/09/14 11:36:21;;;;;;;9.10;3.58;;;24.00;99.90;;;;;;4988898;28;20030;-73
2022/09/14 11:38:58;;;;;;;6.50;3.30;;;24.00;99.90;;;;;;4989302;28;20030;-73
2022/09/14 11:42:27;;;;;;;6.00;3.10;;;24.00;99.90;;;;;;4974095;28;20085;-73
2022/09/14 11:45:06;;;;;;;5.20;2.47;;;24.10;99.90;;;;;;4892921;29;20108;-73
2022/09/14 11:47:47;;;;;;;5.25;2.35;;;24.30;99.90;;;;;;4893445;29;20386;-73
2022/09/14 11:50:15;;;;;;;;;;;24.30;99.90;;;;;;4893493;29;20072;-73
2022/09/14 11:52:41;;;;;;;9.75;2.95;;;24.00;99.90;;;;;;4892548;29;20447;-73
2022/09/14 11:55:16;;;;;;;6.70;3.78;;;24.10;99.90;;;;;;4892988;29;20089;-72
2022/09/14 11:57:45;;;;;;;6.57;2.83;;;23.80;99.90;;;;;;4892986;29;20029;-72
2022/09/14 12:00:25;;;;;;;5.88;3.55;;;23.70;99.90;;;;;;4891997;29;20033;-73
2022/09/14 12:03:18;;;;;;;10.32;3.13;;;23.70;99.90;;;;;;4892274;29;20557;-73
2022/09/14 12:05:46;;;;;;;4.57;2.78;;;23.80;99.90;;;;;;4892298;29;20402;-73
2022/09/14 12:08:46;;;;;;;5.63;3.25;;;23.70;99.90;;;;;;4892829;29;20409;-73
2022/09/14 12:11:12;;;;;;;7.05;4.13;;;23.40;99.90;;;;;;4892850;29;20482;-73
2022/09/14 12:13:38;;;;;;;7.25;3.70;;;23.40;99.90;;;;;;4892429;29;20157;-74
2022/09/14 12:16:07;;;;;;;4.85;3.20;;;23.40;99.90;;;;;;4957976;28;20046;-74
2022/09/14 12:18:38;;;;;;;4.22;2.88;;;23.30;99.90;;;;;;4987899;28;20390;-72
2022/09/14 12:21:25;;;;;;;12.35;5.53;;;23.20;99.90;;;;;;4989226;28;20030;-74
2022/09/14 12:23:56;;;;;;;6.78;3.20;;;23.40;99.90;;;;;;4988716;28;20088;-74
2022/09/14 12:26:35;;;;;;;5.57;3.00;;;23.20;99.90;;;;;;4989353;28;20398;-71
2022/09/14 12:29:28;;;;;;;5.57;3.47;;;23.30;99.90;;;;;;4983113;28;20034;-74
2022/09/14 12:31:53;;;;;;;9.82;4.55;;;23.20;99.90;;;;;;4990843;28;20458;-72
2022/09/14 12:34:21;;;;;;;7.47;3.90;;;23.20;99.90;;;;;;4989793;28;20058;-72
2022/09/14 12:36:47;;;;;;;4.53;3.40;;;23.10;99.90;;;;;;4989302;28;20034;-73
2022/09/14 12:39:23;;;;;;;9.10;3.13;;;23.10;99.90;;;;;;4988262;28;20030;-73
2022/09/14 12:41:49;;;;;;;15.10;4.45;;;23.00;99.90;;;;;;4990690;28;20113;-74
2022/09/14 12:44:39;;;;;;;8.15;4.15;;;22.90;99.90;;;;;;4990496;28;20478;-73
2022/09/14 12:47:23;;;;;;;5.78;3.20;;;22.80;99.90;;;;;;4982854;28;20077;-73
2022/09/14 12:49:55;;;;;;;7.47;3.45;;;22.80;99.90;;;;;;4990441;28;20038;-73
2022/09/14 12:52:58;;;;;;;13.18;3.60;;;22.80;99.90;;;;;;4988439;28;20479;-74
2022/09/14 12:55:46;;;;;;;5.85;3.20;;;22.80;99.90;;;;;;4990914;28;20118;-72
2022/09/14 12:58:49;;;;;;;11.23;4.38;;;22.80;99.90;;;;;;4988764;28;20049;-72
2022/09/14 13:01:34;;;;;;;6.65;3.15;;;22.80;99.90;;;;;;4988859;28;20022;-73
2022/09/14 13:04:02;;;;;;;9.50;3.40;;;22.90;99.90;;;;;;4985949;28;20026;-73
2022/09/14 13:06:41;;;;;;;4.85;3.20;;;22.80;99.90;;;;;;4985849;28;20048;-73
2022/09/14 13:09:23;;;;;;;7.68;3.60;;;22.70;99.90;;;;;;4985809;28;20121;-74
2022/09/14 13:11:56;;;;;;;8.35;4.05;;;22.70;99.90;;;;;;4973039;28;20040;-74
2022/09/14 13:14:27;;;;;;;10.27;5.00;;;22.60;99.90;;;;;;4988604;28;20031;-74
2022/09/14 13:16:55;;;;;;;5.38;3.10;;;22.60;99.90;;;;;;4988743;28;20154;-74
2022/09/14 13:19:26;;;;;;;7.57;4.15;;;22.60;99.90;;;;;;4988685;28;20514;-73
2022/09/14 13:21:57;;;;;;;10.98;3.58;;;22.60;99.90;;;;;;4990322;28;20031;-73
2022/09/14 13:24:34;;;;;;;11.57;3.70;;;22.50;99.90;;;;;;4988763;28;20029;-74
2022/09/14 13:27:02;;;;;;;5.32;3.08;;;22.50;99.90;;;;;;4981201;28;20042;-74